sensor_id;sensor_type;location;lat;lon;timestamp;P1;durP1;ratioP1;P2;durP2;ratioP2
51184;SDS011;37248;59.350;18.050;2023-02-21T00:01:45;3.45;;;1.52;;
51184;SDS011;37248;59.350;18.050;2023-02-21T00:04:29;4.65;;;1.80;;
51184;SDS011;37248;59.350;18.050;2023-02-21T00:07:13;4.65;;;1.65;;
51184;SDS011;37248;59.350;18.050;2023-02-21T00:09:57;3.80;;;1.73;;
51184;SDS011;37248;59.350;18.050;2023-02-21T00:12:41;5.17;;;1.80;;
51184;SDS011;37248;59.350;18.050;2023-02-21T00:15:25;3.37;;;1.37;;
51184;SDS011;37248;59.350;18.050;2023-02-21T00:18:09;4.32;;;1.65;;
51184;SDS011;37248;59.350;18.050;2023-02-21T00:20:52;4.80;;;1.80;;
51184;SDS011;37248;59.350;18.050;2023-02-21T00:23:37;3.88;;;1.65;;
51184;SDS011;37248;59.350;18.050;2023-02-21T00:26:21;4.38;;;2.00;;
51184;SDS011;37248;59.350;18.050;2023-02-21T00:29:05;3.93;;;1.80;;
51184;SDS011;37248;59.350;18.050;2023-02-21T00:31:48;3.67;;;1.60;;
51184;SDS011;37248;59.350;18.050;2023-02-21T00:34:32;4.13;;;1.37;;
51184;SDS011;37248;59.350;18.050;2023-02-21T00:37:16;3.45;;;1.48;;
51184;SDS011;37248;59.350;18.050;2023-02-21T00:40:00;3.50;;;1.33;;
51184;SDS011;37248;59.350;18.050;2023-02-21T00:42:44;2.50;;;1.40;;
51184;SDS011;37248;59.350;18.050;2023-02-21T00:45:28;2.72;;;1.30;;
51184;SDS011;37248;59.350;18.050;2023-02-21T00:48:12;2.30;;;1.30;;
51184;SDS011;37248;59.350;18.050;2023-02-21T00:51:02;4.25;;;1.60;;
51184;SDS011;37248;59.350;18.050;2023-02-21T00:53:46;3.50;;;1.52;;
51184;SDS011;37248;59.350;18.050;2023-02-21T00:56:30;3.80;;;1.40;;
51184;SDS011;37248;59.350;18.050;2023-02-21T00:59:14;2.63;;;1.47;;
51184;SDS011;37248;59.350;18.050;2023-02-21T01:01:58;5.13;;;1.40;;
51184;SDS011;37248;59.350;18.050;2023-02-21T01:04:42;3.42;;;1.35;;
51184;SDS011;37248;59.350;18.050;2023-02-21T01:07:26;3.58;;;1.35;;
51184;SDS011;37248;59.350;18.050;2023-02-21T01:10:09;3.80;;;1.50;;
51184;SDS011;37248;59.350;18.050;2023-02-21T01:12:53;3.40;;;1.30;;
51184;SDS011;37248;59.350;18.050;2023-02-21T01:15:37;3.17;;;1.40;;
51184;SDS011;37248;59.350;18.050;2023-02-21T01:18:21;3.78;;;1.60;;
51184;SDS011;37248;59.350;18.050;2023-02-21T01:21:05;4.57;;;1.50;;
51184;SDS011;37248;59.350;18.050;2023-02-21T01:23:49;3.20;;;1.48;;
51184;SDS011;37248;59.350;18.050;2023-02-21T01:26:33;2.47;;;1.27;;
51184;SDS011;37248;59.350;18.050;2023-02-21T01:29:17;3.55;;;1.25;;
51184;SDS011;37248;59.350;18.050;2023-02-21T01:32:01;2.38;;;1.40;;
51184;SDS011;37248;59.350;18.050;2023-02-21T01:34:45;2.90;;;1.20;;
51184;SDS011;37248;59.350;18.050;2023-02-21T01:37:29;4.55;;;1.10;;
51184;SDS011;37248;59.350;18.050;2023-02-21T01:40:14;1.60;;;1.00;;
51184;SDS011;37248;59.350;18.050;2023-02-21T01:42:58;2.33;;;1.00;;
51184;SDS011;37248;59.350;18.050;2023-02-21T01:45:49;2.72;;;1.10;;
51184;SDS011;37248;59.350;18.050;2023-02-21T01:48:33;3.53;;;1.05;;
51184;SDS011;37248;59.350;18.050;2023-02-21T01:51:18;3.22;;;1.33;;
51184;SDS011;37248;59.350;18.050;2023-02-21T01:54:03;2.60;;;1.08;;
51184;SDS011;37248;59.350;18.050;2023-02-21T01:56:48;2.97;;;1.10;;
51184;SDS011;37248;59.350;18.050;2023-02-21T01:59:32;4.82;;;1.05;;
51184;SDS011;37248;59.350;18.050;2023-02-21T02:02:33;2.83;;;1.10;;
51184;SDS011;37248;59.350;18.050;2023-02-21T02:05:20;2.05;;;1.00;;
51184;SDS011;37248;59.350;18.050;2023-02-21T02:08:04;2.30;;;1.15;;
51184;SDS011;37248;59.350;18.050;2023-02-21T02:10:50;3.08;;;1.20;;
51184;SDS011;37248;59.350;18.050;2023-02-21T02:16:12;1.80;;;1.00;;
51184;SDS011;37248;59.350;18.050;2023-02-21T02:36:46;1.88;;;1.00;;
51184;SDS011;37248;59.350;18.050;2023-02-21T02:41:56;2.28;;;1.05;;
51184;SDS011;37248;59.350;18.050;2023-02-21T02:44:33;3.00;;;1.00;;
51184;SDS011;37248;59.350;18.050;2023-02-21T02:47:02;1.40;;;0.82;;
51184;SDS011;37248;59.350;18.050;2023-02-21T02:49:29;1.50;;;1.00;;
51184;SDS011;37248;59.350;18.050;2023-02-21T02:51:55;3.05;;;1.02;;
51184;SDS011;37248;59.350;18.050;2023-02-21T02:54:26;2.17;;;0.80;;
51184;SDS011;37248;59.350;18.050;2023-02-21T02:56:51;2.73;;;0.90;;
51184;SDS011;37248;59.350;18.050;2023-02-21T02:59:18;1.47;;;0.80;;
51184;SDS011;37248;59.350;18.050;2023-02-21T03:09:31;1.38;;;0.80;;
51184;SDS011;37248;59.350;18.050;2023-02-21T03:12:02;1.60;;;0.80;;
51184;SDS011;37248;59.350;18.050;2023-02-21T03:14:54;2.35;;;0.90;;
51184;SDS011;37248;59.350;18.050;2023-02-21T03:17:15;1.53;;;0.60;;
51184;SDS011;37248;59.350;18.050;2023-02-21T03:19:43;1.90;;;0.70;;
51184;SDS011;37248;59.350;18.050;2023-02-21T03:22:12;2.22;;;0.80;;
51184;SDS011;37248;59.350;18.050;2023-02-21T03:24:38;2.20;;;0.82;;
51184;SDS011;37248;59.350;18.050;2023-02-21T03:27:04;1.52;;;0.77;;
51184;SDS011;37248;59.350;18.050;2023-02-21T03:29:31;1.27;;;0.70;;
51184;SDS011;37248;59.350;18.050;2023-02-21T03:32:19;2.40;;;0.90;;
51184;SDS011;37248;59.350;18.050;2023-02-21T03:34:42;0.90;;;0.60;;
51184;SDS011;37248;59.350;18.050;2023-02-21T03:37:09;1.52;;;0.90;;
51184;SDS011;37248;59.350;18.050;2023-02-21T03:39:34;2.03;;;1.02;;
51184;SDS011;37248;59.350;18.050;2023-02-21T03:42:00;1.50;;;0.70;;
51184;SDS011;37248;59.350;18.050;2023-02-21T03:44:25;1.90;;;0.97;;
51184;SDS011;37248;59.350;18.050;2023-02-21T03:46:50;3.23;;;0.80;;
51184;SDS011;37248;59.350;18.050;2023-02-21T03:49:16;1.53;;;0.90;;
51184;SDS011;37248;59.350;18.050;2023-02-21T03:51:41;2.03;;;0.83;;
51184;SDS011;37248;59.350;18.050;2023-02-21T03:54:06;2.40;;;0.80;;
51184;SDS011;37248;59.350;18.050;2023-02-21T03:56:32;1.90;;;0.83;;
51184;SDS011;37248;59.350;18.050;2023-02-21T03:58:57;0.95;;;0.60;;
51184;SDS011;37248;59.350;18.050;2023-02-21T04:01:22;1.27;;;0.70;;
51184;SDS011;37248;59.350;18.050;2023-02-21T04:03:47;1.10;;;0.60;;
51184;SDS011;37248;59.350;18.050;2023-02-21T04:06:13;2.00;;;0.70;;
51184;SDS011;37248;59.350;18.050;2023-02-21T04:08:38;1.80;;;0.80;;
51184;SDS011;37248;59.350;18.050;2023-02-21T04:11:03;1.30;;;0.60;;
51184;SDS011;37248;59.350;18.050;2023-02-21T04:13:29;1.43;;;0.70;;
51184;SDS011;37248;59.350;18.050;2023-02-21T04:15:54;3.03;;;0.63;;
51184;SDS011;37248;59.350;18.050;2023-02-21T04:18:19;1.70;;;0.80;;
51184;SDS011;37248;59.350;18.050;2023-02-21T04:20:44;4.07;;;0.90;;
51184;SDS011;37248;59.350;18.050;2023-02-21T04:23:11;2.63;;;0.80;;
51184;SDS011;37248;59.350;18.050;2023-02-21T04:25:37;1.48;;;0.70;;
51184;SDS011;37248;59.350;18.050;2023-02-21T04:28:02;3.57;;;0.80;;
51184;SDS011;37248;59.350;18.050;2023-02-21T04:30:28;1.30;;;0.63;;
51184;SDS011;37248;59.350;18.050;2023-02-21T04:32:53;2.20;;;0.70;;
51184;SDS011;37248;59.350;18.050;2023-02-21T04:35:18;2.63;;;0.80;;
51184;SDS011;37248;59.350;18.050;2023-02-21T04:37:44;2.53;;;0.63;;
51184;SDS011;37248;59.350;18.050;2023-02-21T04:40:09;1.13;;;0.70;;
51184;SDS011;37248;59.350;18.050;2023-02-21T04:42:34;1.07;;;0.60;;
51184;SDS011;37248;59.350;18.050;2023-02-21T04:45:00;3.00;;;0.87;;
51184;SDS011;37248;59.350;18.050;2023-02-21T04:47:25;1.30;;;0.60;;
51184;SDS011;37248;59.350;18.050;2023-02-21T04:49:50;1.40;;;0.80;;
51184;SDS011;37248;59.350;18.050;2023-02-21T04:52:17;1.60;;;0.75;;
51184;SDS011;37248;59.350;18.050;2023-02-21T04:54:44;1.60;;;0.70;;
51184;SDS011;37248;59.350;18.050;2023-02-21T04:57:09;0.85;;;0.50;;
51184;SDS011;37248;59.350;18.050;2023-02-21T04:59:35;2.07;;;0.60;;
51184;SDS011;37248;59.350;18.050;2023-02-21T05:02:00;2.07;;;0.60;;
51184;SDS011;37248;59.350;18.050;2023-02-21T05:04:25;1.40;;;0.67;;
51184;SDS011;37248;59.350;18.050;2023-02-21T05:06:51;1.40;;;0.70;;
51184;SDS011;37248;59.350;18.050;2023-02-21T05:09:16;1.20;;;0.70;;
51184;SDS011;37248;59.350;18.050;2023-02-21T05:11:41;1.07;;;0.40;;
51184;SDS011;37248;59.350;18.050;2023-02-21T05:14:06;6.17;;;0.97;;
51184;SDS011;37248;59.350;18.050;2023-02-21T05:16:32;3.67;;;0.80;;
51184;SDS011;37248;59.350;18.050;2023-02-21T05:18:57;2.30;;;0.60;;
51184;SDS011;37248;59.350;18.050;2023-02-21T05:21:22;2.90;;;0.90;;
51184;SDS011;37248;59.350;18.050;2023-02-21T05:23:47;2.90;;;0.60;;
51184;SDS011;37248;59.350;18.050;2023-02-21T05:26:26;3.80;;;0.73;;
51184;SDS011;37248;59.350;18.050;2023-02-21T05:28:51;1.77;;;0.60;;
51184;SDS011;37248;59.350;18.050;2023-02-21T05:31:17;1.60;;;0.60;;
51184;SDS011;37248;59.350;18.050;2023-02-21T05:33:42;2.73;;;0.60;;
51184;SDS011;37248;59.350;18.050;2023-02-21T05:36:08;1.80;;;0.60;;
51184;SDS011;37248;59.350;18.050;2023-02-21T05:38:37;2.60;;;0.77;;
51184;SDS011;37248;59.350;18.050;2023-02-21T05:41:07;2.77;;;0.60;;
51184;SDS011;37248;59.350;18.050;2023-02-21T05:43:32;2.47;;;0.60;;
51184;SDS011;37248;59.350;18.050;2023-02-21T05:45:58;1.70;;;0.60;;
51184;SDS011;37248;59.350;18.050;2023-02-21T05:48:23;1.60;;;0.70;;
51184;SDS011;37248;59.350;18.050;2023-02-21T05:50:48;1.30;;;0.60;;
51184;SDS011;37248;59.350;18.050;2023-02-21T05:53:14;1.57;;;0.40;;
51184;SDS011;37248;59.350;18.050;2023-02-21T05:55:39;3.73;;;0.90;;
51184;SDS011;37248;59.350;18.050;2023-02-21T05:58:04;1.03;;;0.50;;
51184;SDS011;37248;59.350;18.050;2023-02-21T06:00:30;2.67;;;0.57;;
51184;SDS011;37248;59.350;18.050;2023-02-21T06:02:55;1.52;;;0.60;;
51184;SDS011;37248;59.350;18.050;2023-02-21T06:05:21;2.50;;;0.90;;
51184;SDS011;37248;59.350;18.050;2023-02-21T06:07:46;3.93;;;0.77;;
51184;SDS011;37248;59.350;18.050;2023-02-21T06:10:12;3.43;;;0.70;;
51184;SDS011;37248;59.350;18.050;2023-02-21T06:12:37;5.32;;;0.85;;
51184;SDS011;37248;59.350;18.050;2023-02-21T06:15:02;5.13;;;0.67;;
51184;SDS011;37248;59.350;18.050;2023-02-21T06:17:31;6.30;;;0.90;;
51184;SDS011;37248;59.350;18.050;2023-02-21T06:19:56;4.60;;;0.70;;
51184;SDS011;37248;59.350;18.050;2023-02-21T06:22:21;4.30;;;0.67;;
51184;SDS011;37248;59.350;18.050;2023-02-21T06:24:47;7.33;;;1.27;;
51184;SDS011;37248;59.350;18.050;2023-02-21T06:27:12;5.50;;;0.63;;
51184;SDS011;37248;59.350;18.050;2023-02-21T06:29:38;6.38;;;0.85;;
51184;SDS011;37248;59.350;18.050;2023-02-21T06:32:03;8.87;;;1.27;;
51184;SDS011;37248;59.350;18.050;2023-02-21T06:34:29;6.33;;;0.93;;
51184;SDS011;37248;59.350;18.050;2023-02-21T06:36:54;9.33;;;1.00;;
51184;SDS011;37248;59.350;18.050;2023-02-21T06:39:20;7.13;;;0.83;;
51184;SDS011;37248;59.350;18.050;2023-02-21T06:41:45;4.97;;;1.00;;
51184;SDS011;37248;59.350;18.050;2023-02-21T06:44:11;3.03;;;0.80;;
51184;SDS011;37248;59.350;18.050;2023-02-21T06:46:36;4.03;;;0.80;;
51184;SDS011;37248;59.350;18.050;2023-02-21T06:49:03;3.65;;;0.93;;
51184;SDS011;37248;59.350;18.050;2023-02-21T06:51:32;5.40;;;0.90;;
51184;SDS011;37248;59.350;18.050;2023-02-21T06:53:58;2.35;;;0.70;;
51184;SDS011;37248;59.350;18.050;2023-02-21T06:56:24;6.88;;;1.00;;
51184;SDS011;37248;59.350;18.050;2023-02-21T06:58:49;4.17;;;0.77;;
51184;SDS011;37248;59.350;18.050;2023-02-21T07:01:15;4.93;;;0.87;;
51184;SDS011;37248;59.350;18.050;2023-02-21T07:03:40;7.17;;;0.93;;
51184;SDS011;37248;59.350;18.050;2023-02-21T07:06:07;3.42;;;0.90;;
51184;SDS011;37248;59.350;18.050;2023-02-21T07:08:32;3.83;;;0.80;;
51184;SDS011;37248;59.350;18.050;2023-02-21T07:11:00;4.05;;;0.68;;
51184;SDS011;37248;59.350;18.050;2023-02-21T07:13:26;1.95;;;0.80;;
51184;SDS011;37248;59.350;18.050;2023-02-21T07:15:51;4.80;;;0.70;;
51184;SDS011;37248;59.350;18.050;2023-02-21T07:18:16;2.27;;;0.80;;
51184;SDS011;37248;59.350;18.050;2023-02-21T07:20:42;4.10;;;0.90;;
51184;SDS011;37248;59.350;18.050;2023-02-21T07:23:07;3.17;;;0.70;;
51184;SDS011;37248;59.350;18.050;2023-02-21T07:25:32;4.57;;;0.93;;
51184;SDS011;37248;59.350;18.050;2023-02-21T07:27:58;3.30;;;0.83;;
51184;SDS011;37248;59.350;18.050;2023-02-21T07:30:23;3.43;;;0.77;;
51184;SDS011;37248;59.350;18.050;2023-02-21T07:32:48;1.50;;;0.73;;
51184;SDS011;37248;59.350;18.050;2023-02-21T07:35:14;1.43;;;0.50;;
51184;SDS011;37248;59.350;18.050;2023-02-21T07:37:39;2.47;;;0.70;;
51184;SDS011;37248;59.350;18.050;2023-02-21T07:40:04;3.70;;;0.97;;
51184;SDS011;37248;59.350;18.050;2023-02-21T07:42:32;2.45;;;0.80;;
51184;SDS011;37248;59.350;18.050;2023-02-21T07:44:58;2.50;;;0.60;;
51184;SDS011;37248;59.350;18.050;2023-02-21T07:47:24;2.60;;;0.73;;
51184;SDS011;37248;59.350;18.050;2023-02-21T07:49:49;2.40;;;0.60;;
51184;SDS011;37248;59.350;18.050;2023-02-21T07:52:15;1.10;;;0.50;;
51184;SDS011;37248;59.350;18.050;2023-02-21T07:54:41;2.20;;;0.73;;
51184;SDS011;37248;59.350;18.050;2023-02-21T07:57:06;1.00;;;0.50;;
51184;SDS011;37248;59.350;18.050;2023-02-21T07:59:31;2.47;;;0.73;;
51184;SDS011;37248;59.350;18.050;2023-02-21T08:01:56;4.70;;;0.97;;
51184;SDS011;37248;59.350;18.050;2023-02-21T08:04:22;5.93;;;0.90;;
51184;SDS011;37248;59.350;18.050;2023-02-21T08:06:48;3.45;;;0.68;;
51184;SDS011;37248;59.350;18.050;2023-02-21T08:09:13;4.68;;;1.00;;
51184;SDS011;37248;59.350;18.050;2023-02-21T08:11:38;2.60;;;0.80;;
51184;SDS011;37248;59.350;18.050;2023-02-21T08:14:04;4.13;;;0.73;;
51184;SDS011;37248;59.350;18.050;2023-02-21T08:16:29;4.85;;;0.95;;
51184;SDS011;37248;59.350;18.050;2023-02-21T08:18:55;4.53;;;0.80;;
51184;SDS011;37248;59.350;18.050;2023-02-21T08:21:20;7.70;;;0.97;;
51184;SDS011;37248;59.350;18.050;2023-02-21T08:23:46;2.30;;;0.95;;
51184;SDS011;37248;59.350;18.050;2023-02-21T08:26:11;4.87;;;1.00;;
51184;SDS011;37248;59.350;18.050;2023-02-21T08:28:36;1.65;;;0.80;;
51184;SDS011;37248;59.350;18.050;2023-02-21T08:31:02;1.53;;;0.77;;
51184;SDS011;37248;59.350;18.050;2023-02-21T08:33:27;3.28;;;0.93;;
51184;SDS011;37248;59.350;18.050;2023-02-21T08:35:52;4.13;;;0.82;;
51184;SDS011;37248;59.350;18.050;2023-02-21T08:38:18;4.30;;;0.90;;
51184;SDS011;37248;59.350;18.050;2023-02-21T08:40:43;2.23;;;0.77;;
51184;SDS011;37248;59.350;18.050;2023-02-21T08:43:09;4.90;;;1.00;;
51184;SDS011;37248;59.350;18.050;2023-02-21T08:45:34;3.03;;;1.10;;
51184;SDS011;37248;59.350;18.050;2023-02-21T08:48:00;2.33;;;1.07;;
51184;SDS011;37248;59.350;18.050;2023-02-21T08:50:26;4.87;;;1.07;;
51184;SDS011;37248;59.350;18.050;2023-02-21T08:52:51;3.20;;;1.00;;
51184;SDS011;37248;59.350;18.050;2023-02-21T08:55:17;2.30;;;1.10;;
51184;SDS011;37248;59.350;18.050;2023-02-21T08:57:43;2.58;;;0.95;;
51184;SDS011;37248;59.350;18.050;2023-02-21T09:00:09;4.57;;;1.30;;
51184;SDS011;37248;59.350;18.050;2023-02-21T09:02:35;3.67;;;1.00;;
51184;SDS011;37248;59.350;18.050;2023-02-21T09:05:06;5.32;;;1.02;;
51184;SDS011;37248;59.350;18.050;2023-02-21T09:07:31;3.77;;;1.00;;
51184;SDS011;37248;59.350;18.050;2023-02-21T09:09:57;3.50;;;0.93;;
51184;SDS011;37248;59.350;18.050;2023-02-21T09:12:22;3.13;;;1.03;;
51184;SDS011;37248;59.350;18.050;2023-02-21T09:14:47;4.27;;;1.10;;
51184;SDS011;37248;59.350;18.050;2023-02-21T09:17:13;3.07;;;1.30;;
51184;SDS011;37248;59.350;18.050;2023-02-21T09:19:38;4.33;;;1.40;;
51184;SDS011;37248;59.350;18.050;2023-02-21T09:22:05;3.92;;;1.48;;
51184;SDS011;37248;59.350;18.050;2023-02-21T09:24:31;2.70;;;1.30;;
51184;SDS011;37248;59.350;18.050;2023-02-21T09:26:57;5.20;;;1.50;;
51184;SDS011;37248;59.350;18.050;2023-02-21T09:29:32;6.25;;;1.60;;
51184;SDS011;37248;59.350;18.050;2023-02-21T09:31:58;2.47;;;1.50;;
51184;SDS011;37248;59.350;18.050;2023-02-21T09:34:24;6.90;;;1.90;;
51184;SDS011;37248;59.350;18.050;2023-02-21T09:36:49;47.63;;;4.20;;
51184;SDS011;37248;59.350;18.050;2023-02-21T09:39:15;60.77;;;5.33;;
51184;SDS011;37248;59.350;18.050;2023-02-21T09:41:41;37.25;;;4.50;;
51184;SDS011;37248;59.350;18.050;2023-02-21T09:44:17;43.65;;;3.95;;
51184;SDS011;37248;59.350;18.050;2023-02-21T09:46:44;42.40;;;4.07;;
51184;SDS011;37248;59.350;18.050;2023-02-21T09:49:11;20.95;;;3.30;;
51184;SDS011;37248;59.350;18.050;2023-02-21T09:51:38;19.60;;;2.63;;
51184;SDS011;37248;59.350;18.050;2023-02-21T09:54:05;25.77;;;3.20;;
51184;SDS011;37248;59.350;18.050;2023-02-21T09:56:37;26.15;;;2.97;;
51184;SDS011;37248;59.350;18.050;2023-02-21T09:59:03;24.20;;;2.90;;
51184;SDS011;37248;59.350;18.050;2023-02-21T10:02:02;23.50;;;3.40;;
51184;SDS011;37248;59.350;18.050;2023-02-21T10:12:14;21.33;;;3.40;;
51184;SDS011;37248;59.350;18.050;2023-02-21T10:19:42;15.00;;;3.13;;
51184;SDS011;37248;59.350;18.050;2023-02-21T10:22:18;11.30;;;3.08;;
51184;SDS011;37248;59.350;18.050;2023-02-21T10:24:44;13.23;;;3.00;;
51184;SDS011;37248;59.350;18.050;2023-02-21T10:27:29;14.43;;;3.03;;
51184;SDS011;37248;59.350;18.050;2023-02-21T10:32:21;12.10;;;2.93;;
51184;SDS011;37248;59.350;18.050;2023-02-21T10:34:47;12.65;;;2.80;;
51184;SDS011;37248;59.350;18.050;2023-02-21T10:40:51;14.00;;;3.00;;
51184;SDS011;37248;59.350;18.050;2023-02-21T10:42:47;16.10;;;3.10;;
51184;SDS011;37248;59.350;18.050;2023-02-21T10:45:15;7.18;;;2.95;;
51184;SDS011;37248;59.350;18.050;2023-02-21T10:47:57;14.35;;;2.83;;
51184;SDS011;37248;59.350;18.050;2023-02-21T10:50:38;10.75;;;2.92;;
51184;SDS011;37248;59.350;18.050;2023-02-21T10:53:03;7.70;;;2.40;;
51184;SDS011;37248;59.350;18.050;2023-02-21T10:55:28;9.27;;;2.70;;
51184;SDS011;37248;59.350;18.050;2023-02-21T10:57:55;7.30;;;2.20;;
51184;SDS011;37248;59.350;18.050;2023-02-21T11:02:49;5.90;;;2.40;;
51184;SDS011;37248;59.350;18.050;2023-02-21T11:05:20;9.67;;;2.50;;
51184;SDS011;37248;59.350;18.050;2023-02-21T11:08:06;7.10;;;2.30;;
51184;SDS011;37248;59.350;18.050;2023-02-21T11:10:33;6.75;;;2.15;;
51184;SDS011;37248;59.350;18.050;2023-02-21T11:13:06;7.15;;;2.28;;
51184;SDS011;37248;59.350;18.050;2023-02-21T11:15:36;4.03;;;2.10;;
51184;SDS011;37248;59.350;18.050;2023-02-21T11:18:05;5.87;;;2.47;;
51184;SDS011;37248;59.350;18.050;2023-02-21T11:20:31;6.57;;;2.17;;
51184;SDS011;37248;59.350;18.050;2023-02-21T11:22:57;4.85;;;2.40;;
51184;SDS011;37248;59.350;18.050;2023-02-21T11:25:29;5.33;;;2.13;;
51184;SDS011;37248;59.350;18.050;2023-02-21T11:30:42;5.20;;;1.80;;
51184;SDS011;37248;59.350;18.050;2023-02-21T11:33:11;6.55;;;2.10;;
51184;SDS011;37248;59.350;18.050;2023-02-21T11:35:43;5.23;;;1.90;;
51184;SDS011;37248;59.350;18.050;2023-02-21T11:40:55;4.33;;;1.77;;
51184;SDS011;37248;59.350;18.050;2023-02-21T11:43:27;6.10;;;1.73;;
51184;SDS011;37248;59.350;18.050;2023-02-21T11:48:24;3.13;;;1.90;;
51184;SDS011;37248;59.350;18.050;2023-02-21T11:50:57;4.23;;;1.87;;
51184;SDS011;37248;59.350;18.050;2023-02-21T11:53:29;4.78;;;1.90;;
51184;SDS011;37248;59.350;18.050;2023-02-21T11:56:05;6.25;;;2.00;;
51184;SDS011;37248;59.350;18.050;2023-02-21T11:58:37;3.28;;;1.98;;
51184;SDS011;37248;59.350;18.050;2023-02-21T12:01:07;3.67;;;1.90;;
51184;SDS011;37248;59.350;18.050;2023-02-21T12:03:50;3.83;;;1.98;;
51184;SDS011;37248;59.350;18.050;2023-02-21T12:08:43;3.00;;;1.83;;
51184;SDS011;37248;59.350;18.050;2023-02-21T12:23:52;5.57;;;2.00;;
51184;SDS011;37248;59.350;18.050;2023-02-21T12:26:26;2.63;;;1.60;;
51184;SDS011;37248;59.350;18.050;2023-02-21T12:32:11;2.83;;;1.90;;
51184;SDS011;37248;59.350;18.050;2023-02-21T12:47:27;4.57;;;1.70;;
51184;SDS011;37248;59.350;18.050;2023-02-21T12:52:39;4.20;;;1.70;;
51184;SDS011;37248;59.350;18.050;2023-02-21T12:55:11;2.67;;;1.52;;
51184;SDS011;37248;59.350;18.050;2023-02-21T13:00:17;2.63;;;1.83;;
51184;SDS011;37248;59.350;18.050;2023-02-21T13:05:41;3.42;;;1.80;;
51184;SDS011;37248;59.350;18.050;2023-02-21T13:10:54;1.95;;;1.33;;
51184;SDS011;37248;59.350;18.050;2023-02-21T13:13:21;2.95;;;1.45;;
51184;SDS011;37248;59.350;18.050;2023-02-21T13:15:48;2.20;;;1.60;;
51184;SDS011;37248;59.350;18.050;2023-02-21T13:18:22;3.83;;;1.63;;
51184;SDS011;37248;59.350;18.050;2023-02-21T13:21:32;1.90;;;1.40;;
51184;SDS011;37248;59.350;18.050;2023-02-21T13:23:38;2.45;;;1.67;;
51184;SDS011;37248;59.350;18.050;2023-02-21T13:28:32;2.40;;;1.60;;
51184;SDS011;37248;59.350;18.050;2023-02-21T13:31:01;1.85;;;1.55;;
51184;SDS011;37248;59.350;18.050;2023-02-21T13:33:42;2.28;;;1.48;;
51184;SDS011;37248;59.350;18.050;2023-02-21T13:38:57;1.80;;;1.42;;
51184;SDS011;37248;59.350;18.050;2023-02-21T13:41:24;1.90;;;1.40;;
51184;SDS011;37248;59.350;18.050;2023-02-21T13:43:51;1.88;;;1.48;;
51184;SDS011;37248;59.350;18.050;2023-02-21T13:51:46;2.67;;;1.50;;
51184;SDS011;37248;59.350;18.050;2023-02-21T13:54:11;2.10;;;1.50;;
51184;SDS011;37248;59.350;18.050;2023-02-21T13:56:43;2.22;;;1.35;;
51184;SDS011;37248;59.350;18.050;2023-02-21T14:01:50;1.70;;;1.38;;
51184;SDS011;37248;59.350;18.050;2023-02-21T14:07:00;2.27;;;1.60;;
51184;SDS011;37248;59.350;18.050;2023-02-21T14:09:26;2.17;;;1.50;;
51184;SDS011;37248;59.350;18.050;2023-02-21T14:11:51;2.10;;;1.50;;
51184;SDS011;37248;59.350;18.050;2023-02-21T14:14:19;3.40;;;1.60;;
51184;SDS011;37248;59.350;18.050;2023-02-21T14:16:49;2.35;;;1.65;;
51184;SDS011;37248;59.350;18.050;2023-02-21T14:19:25;2.47;;;1.70;;
51184;SDS011;37248;59.350;18.050;2023-02-21T14:21:56;2.20;;;1.60;;
51184;SDS011;37248;59.350;18.050;2023-02-21T14:24:24;2.53;;;1.50;;
51184;SDS011;37248;59.350;18.050;2023-02-21T14:29:35;2.00;;;1.53;;
51184;SDS011;37248;59.350;18.050;2023-02-21T14:36:56;1.67;;;1.57;;
51184;SDS011;37248;59.350;18.050;2023-02-21T14:39:22;1.70;;;1.60;;
51184;SDS011;37248;59.350;18.050;2023-02-21T14:42:00;2.17;;;1.47;;
51184;SDS011;37248;59.350;18.050;2023-02-21T14:44:36;2.05;;;1.80;;
51184;SDS011;37248;59.350;18.050;2023-02-21T14:47:28;2.08;;;1.58;;
51184;SDS011;37248;59.350;18.050;2023-02-21T14:52:49;1.70;;;1.55;;
51184;SDS011;37248;59.350;18.050;2023-02-21T15:00:45;2.10;;;1.70;;
51184;SDS011;37248;59.350;18.050;2023-02-21T15:03:16;1.92;;;1.45;;
51184;SDS011;37248;59.350;18.050;2023-02-21T15:05:48;2.20;;;1.70;;
51184;SDS011;37248;59.350;18.050;2023-02-21T15:08:21;1.93;;;1.70;;
51184;SDS011;37248;59.350;18.050;2023-02-21T15:10:51;1.83;;;1.60;;
51184;SDS011;37248;59.350;18.050;2023-02-21T15:15:45;1.98;;;1.73;;
51184;SDS011;37248;59.350;18.050;2023-02-21T15:18:12;1.97;;;1.60;;
51184;SDS011;37248;59.350;18.050;2023-02-21T15:20:51;1.95;;;1.73;;
51184;SDS011;37248;59.350;18.050;2023-02-21T15:23:25;1.80;;;1.70;;
51184;SDS011;37248;59.350;18.050;2023-02-21T15:25:54;5.40;;;1.70;;
51184;SDS011;37248;59.350;18.050;2023-02-21T15:28:21;2.10;;;1.83;;
51184;SDS011;37248;59.350;18.050;2023-02-21T15:30:56;2.20;;;1.90;;
51184;SDS011;37248;59.350;18.050;2023-02-21T15:33:23;2.03;;;1.83;;
51184;SDS011;37248;59.350;18.050;2023-02-21T15:35:52;2.58;;;1.70;;
51184;SDS011;37248;59.350;18.050;2023-02-21T15:40:44;4.10;;;1.73;;
51184;SDS011;37248;59.350;18.050;2023-02-21T15:43:14;3.45;;;1.90;;
51184;SDS011;37248;59.350;18.050;2023-02-21T15:45:45;6.75;;;2.35;;
51184;SDS011;37248;59.350;18.050;2023-02-21T15:48:12;17.50;;;2.13;;
51184;SDS011;37248;59.350;18.050;2023-02-21T15:50:38;9.57;;;2.10;;
51184;SDS011;37248;59.350;18.050;2023-02-21T15:55:42;7.68;;;2.10;;
51184;SDS011;37248;59.350;18.050;2023-02-21T16:00:43;12.50;;;2.22;;
51184;SDS011;37248;59.350;18.050;2023-02-21T16:05:55;7.85;;;2.45;;
51184;SDS011;37248;59.350;18.050;2023-02-21T16:08:20;7.60;;;2.90;;
51184;SDS011;37248;59.350;18.050;2023-02-21T16:10:46;7.90;;;2.70;;
51184;SDS011;37248;59.350;18.050;2023-02-21T16:13:11;7.40;;;2.80;;
51184;SDS011;37248;59.350;18.050;2023-02-21T16:15:38;9.98;;;3.40;;
51184;SDS011;37248;59.350;18.050;2023-02-21T16:18:08;11.98;;;3.30;;
51184;SDS011;37248;59.350;18.050;2023-02-21T16:23:13;13.80;;;3.30;;
51184;SDS011;37248;59.350;18.050;2023-02-21T16:28:22;9.02;;;3.05;;
51184;SDS011;37248;59.350;18.050;2023-02-21T16:30:47;10.20;;;3.35;;
51184;SDS011;37248;59.350;18.050;2023-02-21T16:33:13;9.60;;;3.20;;
51184;SDS011;37248;59.350;18.050;2023-02-21T16:35:38;10.27;;;3.33;;
51184;SDS011;37248;59.350;18.050;2023-02-21T16:38:04;8.55;;;3.70;;
51184;SDS011;37248;59.350;18.050;2023-02-21T16:40:31;6.53;;;3.13;;
51184;SDS011;37248;59.350;18.050;2023-02-21T16:42:57;11.45;;;3.50;;
51184;SDS011;37248;59.350;18.050;2023-02-21T16:45:24;11.97;;;3.40;;
51184;SDS011;37248;59.350;18.050;2023-02-21T16:47:54;13.10;;;3.70;;
51184;SDS011;37248;59.350;18.050;2023-02-21T16:50:21;13.50;;;3.58;;
51184;SDS011;37248;59.350;18.050;2023-02-21T16:52:47;8.35;;;3.50;;
51184;SDS011;37248;59.350;18.050;2023-02-21T16:55:13;8.93;;;3.30;;
51184;SDS011;37248;59.350;18.050;2023-02-21T16:57:38;10.65;;;3.70;;
51184;SDS011;37248;59.350;18.050;2023-02-21T17:00:04;7.97;;;3.57;;
51184;SDS011;37248;59.350;18.050;2023-02-21T17:02:29;8.67;;;3.30;;
51184;SDS011;37248;59.350;18.050;2023-02-21T17:04:54;8.50;;;3.57;;
51184;SDS011;37248;59.350;18.050;2023-02-21T17:07:20;10.43;;;3.63;;
51184;SDS011;37248;59.350;18.050;2023-02-21T17:09:48;8.70;;;3.47;;
51184;SDS011;37248;59.350;18.050;2023-02-21T17:12:14;5.22;;;3.50;;
51184;SDS011;37248;59.350;18.050;2023-02-21T17:14:39;6.50;;;3.42;;
51184;SDS011;37248;59.350;18.050;2023-02-21T17:17:05;10.07;;;3.50;;
51184;SDS011;37248;59.350;18.050;2023-02-21T17:19:30;5.90;;;3.40;;
51184;SDS011;37248;59.350;18.050;2023-02-21T17:21:55;19.57;;;4.40;;